Time;durP1;ratioP1;P1;durP2;ratioP2;P2;SDS_P1;SDS_P2;PMS_P1;PMS_P2;Temp;Humidity;BMP_temperature;BMP_pressure;BME280_temperature;BME280_humidity;BME280_pressure;Samples;Min_cycle;Max_cycle;Signal;HPM_P1;HPM_P2
2021/12/14 00:03:15;;;;;;;9.80;3.33;;;9.00;99.90;;;;;;20664418;28;20140;-44
2021/12/14 00:13:46;;;;;;;11.20;4.72;;;9.00;99.90;;;;;;20661311;28;20099;-44
2021/12/14 00:34:05;;;;;;;13.48;5.05;;;8.90;99.90;;;;;;20661292;28;20445;-44
2021/12/14 00:44:08;;;;;;;17.00;6.63;;;8.90;99.90;;;;;;20657383;28;22106;-44
2021/12/14 00:54:13;;;;;;;14.07;4.63;;;8.80;99.90;;;;;;20664021;28;20525;-43
2021/12/14 01:04:21;;;;;;;13.73;5.15;;;8.80;99.90;;;;;;20663329;28;20056;-44
2021/12/14 01:14:31;;;;;;;15.45;5.20;;;8.80;99.90;;;;;;20662952;28;20046;-44
2021/12/14 01:34:41;;;;;;;16.17;5.95;;;8.80;99.90;;;;;;20660354;28;20030;-44
2021/12/14 01:44:48;;;;;;;13.57;6.70;;;8.80;99.90;;;;;;20660036;28;20042;-43
2021/12/14 01:54:53;;;;;;;13.48;6.05;;;8.70;99.90;;;;;;20660381;28;23236;-43
2021/12/14 02:04:55;;;;;;;16.40;5.85;;;8.70;99.90;;;;;;20664585;28;20064;-43
2021/12/14 02:15:20;;;;;;;11.88;5.20;;;8.70;99.90;;;;;;20724146;28;20030;-44
2021/12/14 02:25:21;;;;;;;17.10;6.85;;;8.70;99.90;;;;;;20733914;28;20049;-44
2021/12/14 02:35:26;;;;;;;15.77;6.78;;;8.70;99.90;;;;;;20735270;28;20738;-44
2021/12/14 02:45:28;;;;;;;17.98;6.40;;;8.70;99.90;;;;;;20736932;28;20046;-44
2021/12/14 02:55:31;;;;;;;17.23;6.30;;;8.70;99.90;;;;;;20732613;28;20026;-44
2021/12/14 03:05:35;;;;;;;20.40;7.18;;;8.70;99.90;;;;;;20735415;28;20040;-44
2021/12/14 03:15:48;;;;;;;21.10;7.88;;;8.70;99.90;;;;;;20735942;28;20053;-44
2021/12/14 03:25:54;;;;;;;15.20;6.60;;;8.70;99.90;;;;;;20733980;28;21324;-44
2021/12/14 03:36:00;;;;;;;15.98;7.88;;;8.70;99.90;;;;;;20731846;28;20046;-44
2021/12/14 03:46:02;;;;;;;20.05;7.03;;;8.60;99.90;;;;;;20727902;28;20052;-44
2021/12/14 03:56:06;;;;;;;15.82;6.18;;;8.70;99.90;;;;;;20734284;28;20026;-44
2021/12/14 04:06:08;;;;;;;17.00;7.43;;;8.60;99.90;;;;;;20733644;28;20045;-44
2021/12/14 04:16:15;;;;;;;15.23;6.03;;;8.60;99.90;;;;;;20727256;28;20125;-44
2021/12/14 04:26:18;;;;;;;17.17;6.43;;;8.50;99.90;;;;;;20730059;28;20507;-44
2021/12/14 04:36:24;;;;;;;15.82;6.38;;;8.40;99.90;;;;;;20730104;28;20383;-44
2021/12/14 04:56:46;;;;;;;12.45;4.47;;;8.40;99.90;;;;;;20733526;28;20052;-44
2021/12/14 05:06:51;;;;;;;13.10;4.68;;;8.40;99.90;;;;;;20725989;28;20068;-44
2021/12/14 05:17:04;;;;;;;9.82;4.63;;;8.50;99.90;;;;;;20727224;28;20414;-44
2021/12/14 05:27:07;;;;;;;11.45;3.47;;;8.30;99.90;;;;;;20728302;28;20524;-44
2021/12/14 05:37:11;;;;;;;10.32;4.40;;;8.40;99.90;;;;;;20727132;28;20412;-44
2021/12/14 05:47:18;;;;;;;12.18;4.20;;;8.30;99.90;;;;;;20745597;28;20707;-44
2021/12/14 05:57:21;;;;;;;8.85;3.67;;;8.30;99.90;;;;;;20743144;28;20340;-44
2021/12/14 06:07:23;;;;;;;13.05;5.03;;;8.30;99.90;;;;;;20739661;28;20062;-43
2021/12/14 06:17:33;;;;;;;10.98;4.75;;;8.30;99.90;;;;;;20738187;28;20034;-44
2021/12/14 06:27:35;;;;;;;15.07;4.88;;;8.40;99.90;;;;;;20734165;28;20071;-44
2021/12/14 06:48:12;;;;;;;11.30;4.38;;;8.30;99.90;;;;;;20726753;28;20056;-43
2021/12/14 06:58:25;;;;;;;9.90;4.53;;;8.20;99.90;;;;;;20723549;28;20040;-44
2021/12/14 07:08:29;;;;;;;10.57;4.72;;;8.20;99.90;;;;;;20724337;28;20050;-44
2021/12/14 07:18:32;;;;;;;12.27;5.97;;;8.30;99.90;;;;;;20723929;28;20132;-44
2021/12/14 07:28:43;;;;;;;11.57;4.82;;;8.20;99.90;;;;;;20718982;28;20037;-44
2021/12/14 07:38:47;;;;;;;9.57;4.35;;;8.30;99.90;;;;;;20720717;28;20053;-44
2021/12/14 07:48:52;;;;;;;14.98;5.53;;;8.30;99.90;;;;;;20724762;28;20144;-44
2021/12/14 07:58:54;;;;;;;17.38;6.18;;;8.30;99.90;;;;;;20724518;28;20037;-44
2021/12/14 08:08:56;;;;;;;15.80;6.07;;;8.20;99.90;;;;;;20723208;28;20052;-44
2021/12/14 08:18:57;;;;;;;17.08;6.00;;;8.20;99.90;;;;;;20725836;28;20401;-44
2021/12/14 08:29:20;;;;;;;17.23;5.97;;;8.20;99.90;;;;;;20707213;28;20041;-44
2021/12/14 08:39:28;;;;;;;13.43;5.55;;;8.30;99.90;;;;;;20724363;28;20042;-44
2021/12/14 08:49:29;;;;;;;14.45;5.90;;;8.30;99.90;;;;;;20710339;28;20045;-44
2021/12/14 08:59:31;;;;;;;23.25;6.40;;;8.30;99.90;;;;;;20722562;28;20057;-43
2021/12/14 09:09:33;;;;;;;11.40;5.25;;;8.30;99.90;;;;;;20718980;28;20380;-43
2021/12/14 09:19:42;;;;;;;13.32;5.55;;;8.30;99.90;;;;;;20740226;28;20049;-44
2021/12/14 09:29:44;;;;;;;12.38;6.35;;;8.30;99.90;;;;;;20743703;28;20052;-43
2021/12/14 09:39:57;;;;;;;20.60;6.60;;;8.30;99.90;;;;;;20745494;28;20049;-44
2021/12/14 09:50:07;;;;;;;11.00;4.75;;;8.40;99.90;;;;;;20732805;28;20045;-44
2021/12/14 10:00:17;;;;;;;16.55;6.30;;;8.40;99.90;;;;;;20732043;28;20971;-43
2021/12/14 10:10:19;;;;;;;14.68;6.63;;;8.50;99.90;;;;;;20737453;28;20050;-44
2021/12/14 10:20:32;;;;;;;20.52;7.32;;;8.60;99.90;;;;;;20735178;28;20038;-44
2021/12/14 10:30:44;;;;;;;17.33;7.35;;;8.60;99.90;;;;;;20738761;28;20053;-44
2021/12/14 10:51:13;;;;;;;20.23;7.65;;;8.70;99.90;;;;;;20733249;28;20507;-44
2021/12/14 11:01:18;;;;;;;22.77;8.00;;;8.80;99.90;;;;;;20732596;28;20046;-44
2021/12/14 11:11:30;;;;;;;17.92;6.75;;;8.90;99.90;;;;;;20731476;28;20556;-44
2021/12/14 11:21:33;;;;;;;18.48;6.80;;;9.00;99.90;;;;;;20726507;28;20042;-44
2021/12/14 11:31:50;;;;;;;20.00;6.97;;;9.00;99.90;;;;;;20717240;28;20050;-44
2021/12/14 11:41:54;;;;;;;18.10;6.70;;;9.00;99.90;;;;;;20725757;28;20045;-44
2021/12/14 11:51:55;;;;;;;21.25;7.32;;;9.10;99.90;;;;;;20723429;28;20512;-44
2021/12/14 12:01:56;;;;;;;21.98;8.13;;;9.10;99.90;;;;;;20723941;28;20050;-44
2021/12/14 12:12:06;;;;;;;20.02;8.38;;;9.20;99.90;;;;;;20729183;28;20555;-44
2021/12/14 12:22:13;;;;;;;19.77;7.68;;;9.20;99.90;;;;;;20726882;28;20045;-44
2021/12/14 12:32:21;;;;;;;16.77;8.32;;;9.20;99.90;;;;;;20721436;28;20038;-44
2021/12/14 12:42:23;;;;;;;17.38;6.88;;;9.20;99.90;;;;;;20728297;28;20044;-44
2021/12/14 12:52:37;;;;;;;24.67;7.53;;;9.30;99.90;;;;;;20712047;28;20034;-44
2021/12/14 13:02:50;;;;;;;20.70;6.63;;;9.30;99.90;;;;;;20726037;28;20402;-44
2021/12/14 13:12:54;;;;;;;25.08;6.50;;;9.40;99.90;;;;;;20729593;28;20297;-44
2021/12/14 13:22:55;;;;;;;14.45;5.78;;;9.50;99.90;;;;;;20729206;28;20046;-44
2021/12/14 13:32:57;;;;;;;15.10;5.47;;;9.50;99.90;;;;;;20713449;28;20034;-43
2021/12/14 13:43:10;;;;;;;16.33;6.03;;;9.50;99.90;;;;;;20729638;28;20045;-43
2021/12/14 13:53:12;;;;;;;13.82;6.43;;;9.50;99.90;;;;;;20730739;28;20033;-43
2021/12/14 14:03:14;;;;;;;20.90;6.22;;;9.60;99.90;;;;;;20735607;28;20045;-44
2021/12/14 14:13:35;;;;;;;22.73;8.05;;;9.60;99.90;;;;;;20726011;28;20037;-44
2021/12/14 14:23:46;;;;;;;16.25;6.72;;;9.60;99.90;;;;;;20744418;28;20534;-44
2021/12/14 14:33:51;;;;;;;19.00;6.80;;;9.60;99.90;;;;;;20733181;28;20045;-44
2021/12/14 14:44:00;;;;;;;16.08;6.25;;;9.70;99.90;;;;;;20742280;28;20042;-44
2021/12/14 14:54:01;;;;;;;21.15;7.00;;;9.60;99.90;;;;;;20743049;28;20490;-44
2021/12/14 15:04:03;;;;;;;20.58;6.43;;;9.70;99.90;;;;;;20742051;28;20058;-44
2021/12/14 15:14:06;;;;;;;21.10;6.97;;;9.70;99.90;;;;;;20739299;28;20041;-44
2021/12/14 15:24:28;;;;;;;17.75;7.72;;;9.70;99.90;;;;;;20741005;28;20316;-44
2021/12/14 15:35:07;;;;;;;17.60;7.72;;;9.70;99.90;;;;;;20726113;28;20041;-43
2021/12/14 15:45:10;;;;;;;19.23;6.97;;;9.70;99.90;;;;;;20722336;28;20061;-44
2021/12/14 15:55:11;;;;;;;14.90;6.05;;;9.70;99.90;;;;;;20733978;28;20038;-44
2021/12/14 16:05:17;;;;;;;12.63;4.90;;;9.80;99.90;;;;;;20724165;28;20052;-44
2021/12/14 16:15:21;;;;;;;14.73;4.30;;;9.80;99.90;;;;;;20731902;28;20398;-44
2021/12/14 16:25:30;;;;;;;12.27;6.18;;;9.80;99.90;;;;;;20726759;28;20049;-44
2021/12/14 16:35:33;;;;;;;11.85;4.85;;;9.90;99.90;;;;;;20727096;28;20041;-44
2021/12/14 16:45:35;;;;;;;13.13;5.00;;;9.90;99.90;;;;;;20704886;28;20096;-44
2021/12/14 16:55:40;;;;;;;13.15;4.28;;;9.90;99.90;;;;;;20705701;28;20044;-44
2021/12/14 17:05:45;;;;;;;11.80;4.75;;;10.00;99.90;;;;;;20723341;28;20042;-44
2021/12/14 17:15:48;;;;;;;12.10;5.22;;;10.10;99.90;;;;;;20727431;28;20053;-44
2021/12/14 17:25:53;;;;;;;11.73;4.65;;;10.10;99.90;;;;;;20732285;28;20454;-44
2021/12/14 17:35:54;;;;;;;14.35;6.15;;;10.10;99.90;;;;;;20740106;28;20041;-44
2021/12/14 17:45:56;;;;;;;14.55;5.25;;;10.10;99.90;;;;;;20745217;28;20037;-44
2021/12/14 17:56:00;;;;;;;13.95;6.53;;;10.10;99.90;;;;;;20742323;28;20405;-44
2021/12/14 18:06:29;;;;;;;14.27;5.55;;;10.10;99.90;;;;;;20766399;28;20079;-44
2021/12/14 18:16:48;;;;;;;22.13;6.00;;;10.10;99.90;;;;;;20757839;28;20054;-44
2021/12/14 18:26:53;;;;;;;15.75;5.93;;;10.10;99.90;;;;;;20762245;28;20255;-43
2021/12/14 18:36:58;;;;;;;18.40;6.22;;;10.10;99.90;;;;;;20762954;28;20029;-44
2021/12/14 18:57:08;;;;;;;14.50;5.88;;;10.10;99.90;;;;;;20763258;28;20045;-43
2021/12/14 19:07:10;;;;;;;23.42;7.50;;;10.20;99.90;;;;;;20761741;28;20048;-44
2021/12/14 19:17:15;;;;;;;23.40;7.10;;;10.20;99.90;;;;;;20763101;28;20058;-44
2021/12/14 19:27:25;;;;;;;20.80;6.72;;;10.20;99.90;;;;;;20761378;28;20053;-44
2021/12/14 19:37:34;;;;;;;20.50;6.90;;;10.20;99.90;;;;;;20718388;28;20135;-44
2021/12/14 19:47:37;;;;;;;23.98;8.30;;;10.20;99.90;;;;;;20753872;28;20038;-43
2021/12/14 19:57:45;;;;;;;23.33;8.52;;;10.10;99.90;;;;;;20748176;28;20678;-43
2021/12/14 20:07:49;;;;;;;26.92;9.60;;;10.10;99.90;;;;;;20754057;28;20049;-44
2021/12/14 20:17:53;;;;;;;25.33;9.20;;;10.10;99.90;;;;;;20750983;28;20518;-44
2021/12/14 20:28:13;;;;;;;20.13;7.28;;;10.20;99.90;;;;;;20755989;28;20041;-44
2021/12/14 20:38:16;;;;;;;18.42;6.97;;;10.20;99.90;;;;;;20753752;28;20045;-44
2021/12/14 20:48:39;;;;;;;23.73;9.50;;;10.20;99.90;;;;;;20750941;28;20069;-43
2021/12/14 20:58:57;;;;;;;23.30;7.90;;;10.20;99.90;;;;;;20751000;28;20041;-43
2021/12/14 21:09:04;;;;;;;21.60;7.15;;;10.20;99.90;;;;;;20751534;28;20230;-44
2021/12/14 21:19:17;;;;;;;26.47;8.13;;;10.20;99.90;;;;;;20779229;28;20069;-44
2021/12/14 21:29:20;;;;;;;19.17;7.82;;;10.10;99.90;;;;;;20776422;28;20045;-43
2021/12/14 21:39:25;;;;;;;26.85;8.82;;;10.20;99.90;;;;;;20779562;28;20049;-44
2021/12/14 21:49:34;;;;;;;21.40;6.72;;;10.20;99.90;;;;;;20780035;28;20047;-44
2021/12/14 21:59:38;;;;;;;22.48;7.97;;;10.20;99.90;;;;;;20745652;28;20041;-43
2021/12/14 22:09:41;;;;;;;26.73;7.68;;;10.10;99.90;;;;;;20691646;28;20061;-43
2021/12/14 22:19:46;;;;;;;23.73;8.65;;;10.10;99.90;;;;;;20699368;28;20052;-43
2021/12/14 22:29:48;;;;;;;26.02;7.60;;;10.10;99.90;;;;;;20684836;28;20984;-43
2021/12/14 22:39:49;;;;;;;26.83;8.27;;;10.00;99.90;;;;;;20686128;28;20789;-43
2021/12/14 22:49:51;;;;;;;31.85;10.63;;;10.10;99.90;;;;;;20687240;28;20046;-43
2021/12/14 22:59:54;;;;;;;26.00;8.02;;;10.00;99.90;;;;;;20667384;28;20041;-43
2021/12/14 23:09:58;;;;;;;29.75;8.15;;;10.00;99.90;;;;;;20678259;28;20054;-43
2021/12/14 23:20:07;;;;;;;31.27;8.90;;;10.00;99.90;;;;;;20681176;28;20038;-43
2021/12/14 23:30:26;;;;;;;19.88;8.20;;;9.90;99.90;;;;;;20675225;28;20042;-43
2021/12/14 23:40:29;;;;;;;28.80;8.27;;;10.00;99.90;;;;;;20674153;28;20034;-43
2021/12/14 23:50:33;;;;;;;27.38;8.15;;;10.00;99.90;;;;;;20677446;28;20511;-44
